createdAt,value
2022-11-21T00:03:32.888Z,6.96
2022-11-21T00:08:34.344Z,6.88
2022-11-21T00:13:35.861Z,6.93
2022-11-21T00:18:37.699Z,7.05
2022-11-21T00:23:39.343Z,7.12
2022-11-21T00:28:41.391Z,7.23
2022-11-21T00:33:42.853Z,7.29
2022-11-21T00:38:44.418Z,7.35
2022-11-21T00:43:45.880Z,7.39
2022-11-21T00:48:47.402Z,7.37
2022-11-21T00:53:48.933Z,7.35
2022-11-21T00:58:50.410Z,7.28
2022-11-21T01:03:51.850Z,7.19
2022-11-21T01:08:53.455Z,7.14
2022-11-21T01:13:54.982Z,7.10
2022-11-21T01:18:57.189Z,7.12
2022-11-21T01:24:00.314Z,7.13
2022-11-21T01:29:01.794Z,7.16
2022-11-21T01:34:03.375Z,7.22
2022-11-21T01:39:06.971Z,7.23
2022-11-21T01:44:26.174Z,7.27
2022-11-21T01:49:32.557Z,7.26
2022-11-21T01:54:38.719Z,7.25
2022-11-21T01:59:49.468Z,7.18
2022-11-21T02:04:53.427Z,7.15
2022-11-21T02:09:59.016Z,7.09
2022-11-21T02:15:01.583Z,7.07
2022-11-21T02:20:09.193Z,7.10
2022-11-21T02:25:22.645Z,7.13
2022-11-21T02:30:24.441Z,7.13
2022-11-21T02:35:26.250Z,7.12
2022-11-21T02:40:33.326Z,7.11
2022-11-21T02:45:39.310Z,7.15
2022-11-21T02:50:42.703Z,7.16
2022-11-21T02:55:45.162Z,7.17
2022-11-21T03:00:46.859Z,7.22
2022-11-21T03:05:48.650Z,7.25
2022-11-21T03:10:50.133Z,7.29
2022-11-21T03:15:52.110Z,7.32
2022-11-21T03:20:53.575Z,7.38
2022-11-21T03:25:55.008Z,7.44
2022-11-21T03:30:56.450Z,7.49
2022-11-21T03:35:57.950Z,7.53
2022-11-21T03:41:04.473Z,7.48
2022-11-21T03:46:05.887Z,7.53
2022-11-21T03:51:07.331Z,7.53
2022-11-21T03:56:08.749Z,7.52
2022-11-21T04:01:10.844Z,7.50
2022-11-21T04:06:14.825Z,7.35
2022-11-21T04:11:16.593Z,7.25
2022-11-21T04:16:18.076Z,7.25
2022-11-21T04:21:19.548Z,7.30
2022-11-21T04:26:21.020Z,7.39
2022-11-21T04:31:22.455Z,7.34
2022-11-21T04:36:23.886Z,7.12
2022-11-21T04:41:25.350Z,6.99
2022-11-21T04:46:26.805Z,6.93
2022-11-21T04:51:28.338Z,6.89
2022-11-21T04:56:29.799Z,6.85
2022-11-21T05:01:31.236Z,6.96
2022-11-21T05:06:32.691Z,6.93
2022-11-21T05:11:52.792Z,6.92
2022-11-21T05:16:54.268Z,7.06
2022-11-21T05:21:55.774Z,7.21
2022-11-21T05:26:57.204Z,7.27
2022-11-21T05:31:58.664Z,7.24
2022-11-21T05:37:00.196Z,7.18
2022-11-21T05:42:03.355Z,7.14
2022-11-21T05:47:04.945Z,7.15
2022-11-21T05:52:06.445Z,7.02
2022-11-21T05:57:07.858Z,7.05
2022-11-21T06:02:27.788Z,7.04
2022-11-21T06:07:29.234Z,6.94
2022-11-21T06:12:31.410Z,6.83
2022-11-21T06:17:32.893Z,6.77
2022-11-21T06:22:34.339Z,6.72
2022-11-21T06:27:35.776Z,6.68
2022-11-21T06:32:38.272Z,6.78
2022-11-21T06:37:39.788Z,6.86
2022-11-21T06:42:41.254Z,6.85
2022-11-21T06:47:42.643Z,6.86
2022-11-21T06:52:44.111Z,6.94
2022-11-21T06:57:45.512Z,6.95
2022-11-21T07:02:47.236Z,6.95
2022-11-21T07:07:48.698Z,7.07
2022-11-21T07:13:08.864Z,7.33
2022-11-21T07:18:10.455Z,7.55
2022-11-21T07:23:12.040Z,7.71
2022-11-21T07:28:13.436Z,7.73
2022-11-21T07:33:14.914Z,7.71
2022-11-21T07:38:18.745Z,8.29
2022-11-21T07:43:20.207Z,8.54
2022-11-21T07:48:21.648Z,9.03
2022-11-21T07:53:24.268Z,9.98
2022-11-21T07:58:25.736Z,10.55
2022-11-21T08:03:27.166Z,11.33
2022-11-21T08:08:28.823Z,11.95
2022-11-21T08:13:30.295Z,12.14
2022-11-21T08:18:31.987Z,12.59
2022-11-21T08:23:33.457Z,12.84
2022-11-21T08:28:34.894Z,11.64
2022-11-21T08:33:36.530Z,11.15
2022-11-21T08:38:37.956Z,10.60
2022-11-21T08:43:39.446Z,10.34
2022-11-21T08:48:40.881Z,10.35
2022-11-21T08:53:42.713Z,9.83
2022-11-21T08:58:44.165Z,9.41
2022-11-21T09:03:45.635Z,9.20
2022-11-21T09:08:47.111Z,9.02
2022-11-21T09:14:08.567Z,8.87
2022-11-21T09:19:10.106Z,8.91
2022-11-21T09:24:11.682Z,9.26
2022-11-21T09:29:14.978Z,9.77
2022-11-21T09:34:16.423Z,9.73
2022-11-21T09:39:17.946Z,10.12
2022-11-21T09:45:00.877Z,10.61
2022-11-21T09:50:34.503Z,11.10
2022-11-21T09:55:35.881Z,11.85
2022-11-21T10:00:37.377Z,12.56
2022-11-21T10:05:47.009Z,12.46
2022-11-21T10:10:59.224Z,12.80
2022-11-21T10:16:11.743Z,13.00
2022-11-21T10:21:15.990Z,13.21
2022-11-21T10:26:36.327Z,13.35
2022-11-21T10:31:40.856Z,13.31
2022-11-21T10:36:48.622Z,13.29
2022-11-21T10:42:11.021Z,13.22
2022-11-21T10:47:31.603Z,12.85
2022-11-21T10:52:34.903Z,11.96
2022-11-21T10:57:45.480Z,11.59
2022-11-21T11:02:55.978Z,11.65
2022-11-21T11:08:11.576Z,12.63
2022-11-21T11:13:49.904Z,14.48
2022-11-21T11:19:00.290Z,16.59
2022-11-21T11:24:10.604Z,17.76
2022-11-21T11:29:21.469Z,18.76
2022-11-21T11:34:25.666Z,19.20
2022-11-21T11:39:48.374Z,17.42
2022-11-21T11:45:21.148Z,16.16
2022-11-21T11:50:29.527Z,14.64
2022-11-21T11:55:42.022Z,14.03
2022-11-21T12:00:49.978Z,13.83
2022-11-21T12:06:09.434Z,13.57
2022-11-21T12:11:42.409Z,13.24
2022-11-21T12:16:44.100Z,12.82
2022-11-21T12:21:46.077Z,12.63
2022-11-21T12:27:08.579Z,12.60
2022-11-21T12:32:36.579Z,12.94
2022-11-21T12:37:56.928Z,13.01
2022-11-21T12:43:37.157Z,12.90
2022-11-21T12:49:15.883Z,12.94
2022-11-21T12:54:45.351Z,13.05
2022-11-21T12:59:52.802Z,13.18
2022-11-21T13:04:57.352Z,13.23
2022-11-21T13:10:01.649Z,13.14
2022-11-21T13:15:14.827Z,12.80
2022-11-21T13:20:16.437Z,12.41
2022-11-21T13:25:30.236Z,12.03
2022-11-21T13:30:31.865Z,11.58
2022-11-21T13:35:51.604Z,11.30
2022-11-21T13:41:11.610Z,11.16
2022-11-21T13:46:51.716Z,11.20
2022-11-21T13:51:54.568Z,11.35
2022-11-21T13:57:20.264Z,11.44
2022-11-21T14:02:32.474Z,11.46
2022-11-21T14:07:36.987Z,11.45
2022-11-21T14:12:44.889Z,11.30
2022-11-21T14:17:59.643Z,11.13
2022-11-21T14:23:17.153Z,10.89
2022-11-21T14:28:23.388Z,10.73
2022-11-21T14:33:32.433Z,10.66
2022-11-21T14:38:47.719Z,10.56
2022-11-21T14:43:58.210Z,10.43
2022-11-21T14:49:15.701Z,10.23
2022-11-21T14:54:26.842Z,10.08
2022-11-21T14:59:38.620Z,10.02
2022-11-21T15:04:42.083Z,9.85
2022-11-21T15:10:28.769Z,9.72
2022-11-21T15:15:32.125Z,9.53
2022-11-21T15:20:33.784Z,9.39
2022-11-21T15:25:47.295Z,9.28
2022-11-21T15:31:16.123Z,9.18
2022-11-21T15:36:17.625Z,9.07
2022-11-21T15:41:19.163Z,8.95
2022-11-21T15:46:32.049Z,8.82
2022-11-21T15:56:58.269Z,8.65
2022-11-21T15:57:15.121Z,8.75
2022-11-21T16:01:59.672Z,8.61
2022-11-21T16:07:01.257Z,8.56
2022-11-21T16:12:02.931Z,8.48
2022-11-21T16:17:08.165Z,8.42
2022-11-21T16:22:09.657Z,8.28
2022-11-21T16:27:11.129Z,8.15
2022-11-21T16:32:12.584Z,8.06
2022-11-21T16:37:14.471Z,8.08
2022-11-21T16:42:15.903Z,8.07
2022-11-21T16:47:17.329Z,8.04
2022-11-21T16:52:18.800Z,7.96
2022-11-21T16:57:20.184Z,7.93
2022-11-21T17:02:21.572Z,7.89
2022-11-21T17:07:24.954Z,7.83
2022-11-21T17:12:26.762Z,7.80
2022-11-21T17:17:28.239Z,7.75
2022-11-21T17:22:32.624Z,7.71
2022-11-21T17:27:34.118Z,7.66
2022-11-21T17:32:35.706Z,7.67
2022-11-21T17:37:37.543Z,7.72
2022-11-21T17:42:41.154Z,7.77
2022-11-21T17:47:43.955Z,7.80
2022-11-21T17:52:47.005Z,7.83
2022-11-21T17:57:48.529Z,7.84
2022-11-21T18:02:50.051Z,8.01
2022-11-21T18:07:51.628Z,8.38
2022-11-21T18:12:53.075Z,8.72
2022-11-21T18:17:54.526Z,8.88
2022-11-21T18:22:55.959Z,8.90
2022-11-21T18:27:57.360Z,8.97
2022-11-21T18:32:59.001Z,8.93
2022-11-21T18:38:00.401Z,8.92
2022-11-21T18:43:01.829Z,8.88
2022-11-21T18:48:04.332Z,8.78
2022-11-21T18:53:05.829Z,8.66
2022-11-21T18:58:07.233Z,8.50
2022-11-21T19:03:08.661Z,8.35
2022-11-21T19:08:10.093Z,8.17
2022-11-21T19:13:11.502Z,8.08
2022-11-21T19:18:13.347Z,8.24
2022-11-21T19:23:14.799Z,8.39
2022-11-21T19:28:16.184Z,8.50
2022-11-21T19:33:17.724Z,8.57
2022-11-21T19:38:19.305Z,8.57
2022-11-21T19:43:20.702Z,8.59
2022-11-21T19:48:22.093Z,8.64
2022-11-21T19:53:24.340Z,8.70
2022-11-21T19:58:27.500Z,8.70
2022-11-21T20:03:28.946Z,8.67
2022-11-21T20:08:30.408Z,8.69
2022-11-21T20:13:32.995Z,8.64
2022-11-21T20:18:35.872Z,8.62
2022-11-21T20:23:37.695Z,8.65
2022-11-21T20:28:39.904Z,8.65
2022-11-21T20:33:43.749Z,8.58
2022-11-21T20:38:54.018Z,8.50
2022-11-21T20:49:18.755Z,8.59
2022-11-21T20:54:20.236Z,8.61
2022-11-21T20:59:21.651Z,8.63
2022-11-21T21:04:23.122Z,8.52
2022-11-21T21:09:24.566Z,8.35
2022-11-21T21:14:26.021Z,8.30
2022-11-21T21:19:28.094Z,8.12
2022-11-21T21:24:29.727Z,7.89
2022-11-21T21:29:31.606Z,7.76
2022-11-21T21:34:33.444Z,7.85
2022-11-21T21:39:35.097Z,7.97
2022-11-21T21:44:37.088Z,8.08
2022-11-21T21:49:38.758Z,8.16
2022-11-21T21:54:40.158Z,8.15
2022-11-21T21:59:41.620Z,8.16
2022-11-21T22:04:44.363Z,8.18
2022-11-21T22:09:48.497Z,8.23
2022-11-21T22:14:49.950Z,8.27
2022-11-21T22:19:51.632Z,8.20
2022-11-21T22:24:53.091Z,8.18
2022-11-21T22:29:54.523Z,8.12
2022-11-21T22:34:55.937Z,8.17
2022-11-21T22:39:57.532Z,8.26
2022-11-21T22:44:58.943Z,8.33
2022-11-21T22:50:00.556Z,8.28
2022-11-21T22:55:02.052Z,8.11
2022-11-21T23:00:06.933Z,8.08
2022-11-21T23:05:08.469Z,8.13
2022-11-21T23:10:10.215Z,8.21
2022-11-21T23:15:11.623Z,8.26
2022-11-21T23:20:13.026Z,8.26
2022-11-21T23:25:17.224Z,8.28
2022-11-21T23:30:18.684Z,8.31
2022-11-21T23:35:20.092Z,8.32
2022-11-21T23:40:21.506Z,8.28
2022-11-21T23:45:23.014Z,8.17
2022-11-21T23:50:24.855Z,8.11
2022-11-21T23:55:26.260Z,8.16
